sensor_id;sensor_type;location;lat;lon;timestamp;temperature;humidity
32698;DHT22;19087;51.062;3.754;2022-09-17T00:01:07;12.70;99.90
32698;DHT22;19087;51.062;3.754;2022-09-17T00:03:33;12.70;99.90
32698;DHT22;19087;51.062;3.754;2022-09-17T00:06:05;12.70;99.90
32698;DHT22;19087;51.062;3.754;2022-09-17T00:08:31;12.60;99.90
32698;DHT22;19087;51.062;3.754;2022-09-17T00:10:57;12.60;99.90
32698;DHT22;19087;51.062;3.754;2022-09-17T00:13:24;12.50;99.90
32698;DHT22;19087;51.062;3.754;2022-09-17T00:15:50;12.50;99.90
32698;DHT22;19087;51.062;3.754;2022-09-17T00:18:17;12.50;99.90
32698;DHT22;19087;51.062;3.754;2022-09-17T00:20:45;12.50;99.90
32698;DHT22;19087;51.062;3.754;2022-09-17T00:23:12;12.60;99.90
32698;DHT22;19087;51.062;3.754;2022-09-17T00:25:40;12.60;99.90
32698;DHT22;19087;51.062;3.754;2022-09-17T00:28:05;12.50;99.90
32698;DHT22;19087;51.062;3.754;2022-09-17T00:30:31;12.60;99.90
32698;DHT22;19087;51.062;3.754;2022-09-17T00:32:57;12.70;99.90
32698;DHT22;19087;51.062;3.754;2022-09-17T00:35:26;12.50;99.90
32698;DHT22;19087;51.062;3.754;2022-09-17T00:37:52;12.40;99.90
32698;DHT22;19087;51.062;3.754;2022-09-17T00:40:20;12.20;99.90
32698;DHT22;19087;51.062;3.754;2022-09-17T00:42:46;12.30;99.90
32698;DHT22;19087;51.062;3.754;2022-09-17T00:45:12;12.20;99.90
32698;DHT22;19087;51.062;3.754;2022-09-17T00:47:40;12.10;99.90
32698;DHT22;19087;51.062;3.754;2022-09-17T00:50:16;12.10;99.90
32698;DHT22;19087;51.062;3.754;2022-09-17T00:52:56;12.10;99.90
32698;DHT22;19087;51.062;3.754;2022-09-17T00:55:31;12.30;99.90
32698;DHT22;19087;51.062;3.754;2022-09-17T00:58:00;12.30;99.90
32698;DHT22;19087;51.062;3.754;2022-09-17T01:00:30;12.40;99.90
32698;DHT22;19087;51.062;3.754;2022-09-17T01:02:56;12.40;99.90
32698;DHT22;19087;51.062;3.754;2022-09-17T01:08:23;12.80;99.90
32698;DHT22;19087;51.062;3.754;2022-09-17T01:25:20;13.00;99.90
32698;DHT22;19087;51.062;3.754;2022-09-17T01:33:38;12.90;99.90
32698;DHT22;19087;51.062;3.754;2022-09-17T01:41:15;12.70;99.90
32698;DHT22;19087;51.062;3.754;2022-09-17T01:43:56;12.70;99.90
32698;DHT22;19087;51.062;3.754;2022-09-17T01:46:25;12.60;99.90
32698;DHT22;19087;51.062;3.754;2022-09-17T01:48:57;12.50;99.90
32698;DHT22;19087;51.062;3.754;2022-09-17T01:51:26;12.50;99.90
32698;DHT22;19087;51.062;3.754;2022-09-17T01:53:56;12.40;99.90
32698;DHT22;19087;51.062;3.754;2022-09-17T01:56:27;12.40;99.90
32698;DHT22;19087;51.062;3.754;2022-09-17T01:59:03;12.20;99.90
32698;DHT22;19087;51.062;3.754;2022-09-17T02:01:32;12.10;99.90
32698;DHT22;19087;51.062;3.754;2022-09-17T02:04:07;12.00;99.90
32698;DHT22;19087;51.062;3.754;2022-09-17T02:06:41;11.80;99.90
32698;DHT22;19087;51.062;3.754;2022-09-17T02:09:43;11.70;99.90
32698;DHT22;19087;51.062;3.754;2022-09-17T02:12:16;11.70;99.90
32698;DHT22;19087;51.062;3.754;2022-09-17T02:14:49;11.80;99.90
32698;DHT22;19087;51.062;3.754;2022-09-17T02:17:48;11.70;99.90
32698;DHT22;19087;51.062;3.754;2022-09-17T02:20:15;11.60;99.90
32698;DHT22;19087;51.062;3.754;2022-09-17T02:22:48;11.50;99.90
32698;DHT22;19087;51.062;3.754;2022-09-17T02:25:35;11.60;99.90
32698;DHT22;19087;51.062;3.754;2022-09-17T02:28:11;11.50;99.90
32698;DHT22;19087;51.062;3.754;2022-09-17T02:30:39;11.40;99.90
32698;DHT22;19087;51.062;3.754;2022-09-17T02:33:08;11.50;99.90
32698;DHT22;19087;51.062;3.754;2022-09-17T02:35:35;11.30;99.90
32698;DHT22;19087;51.062;3.754;2022-09-17T02:38:02;11.30;99.90
32698;DHT22;19087;51.062;3.754;2022-09-17T02:40:33;11.20;99.90
32698;DHT22;19087;51.062;3.754;2022-09-17T02:46:26;11.20;99.90
32698;DHT22;19087;51.062;3.754;2022-09-17T02:55:12;11.00;99.90
32698;DHT22;19087;51.062;3.754;2022-09-17T02:57:52;11.20;99.90
32698;DHT22;19087;51.062;3.754;2022-09-17T03:00:20;11.20;99.90
32698;DHT22;19087;51.062;3.754;2022-09-17T03:02:57;11.40;99.90
32698;DHT22;19087;51.062;3.754;2022-09-17T03:05:24;11.50;99.90
32698;DHT22;19087;51.062;3.754;2022-09-17T03:07:50;11.40;99.90
32698;DHT22;19087;51.062;3.754;2022-09-17T03:10:16;11.60;99.90
32698;DHT22;19087;51.062;3.754;2022-09-17T03:12:43;11.80;99.90
32698;DHT22;19087;51.062;3.754;2022-09-17T03:15:09;11.90;99.90
32698;DHT22;19087;51.062;3.754;2022-09-17T03:17:35;12.00;99.90
32698;DHT22;19087;51.062;3.754;2022-09-17T03:20:01;12.00;99.90
32698;DHT22;19087;51.062;3.754;2022-09-17T03:22:26;11.80;99.90
32698;DHT22;19087;51.062;3.754;2022-09-17T03:24:52;11.90;99.90
32698;DHT22;19087;51.062;3.754;2022-09-17T03:27:18;11.90;99.90
32698;DHT22;19087;51.062;3.754;2022-09-17T03:29:43;12.10;99.90
32698;DHT22;19087;51.062;3.754;2022-09-17T03:32:09;12.10;99.90
32698;DHT22;19087;51.062;3.754;2022-09-17T03:34:34;12.00;99.90
32698;DHT22;19087;51.062;3.754;2022-09-17T03:37:00;12.10;99.90
32698;DHT22;19087;51.062;3.754;2022-09-17T03:39:28;12.20;99.90
32698;DHT22;19087;51.062;3.754;2022-09-17T03:41:54;12.20;99.90
32698;DHT22;19087;51.062;3.754;2022-09-17T03:44:20;12.20;99.90
32698;DHT22;19087;51.062;3.754;2022-09-17T03:46:48;12.30;99.90
32698;DHT22;19087;51.062;3.754;2022-09-17T03:49:14;12.10;99.90
32698;DHT22;19087;51.062;3.754;2022-09-17T03:51:40;12.10;99.90
32698;DHT22;19087;51.062;3.754;2022-09-17T03:54:06;12.20;99.90
32698;DHT22;19087;51.062;3.754;2022-09-17T03:56:31;12.20;99.90
32698;DHT22;19087;51.062;3.754;2022-09-17T03:59:00;12.20;99.90
32698;DHT22;19087;51.062;3.754;2022-09-17T04:01:27;12.20;99.90
32698;DHT22;19087;51.062;3.754;2022-09-17T04:03:53;12.30;99.90
32698;DHT22;19087;51.062;3.754;2022-09-17T04:06:19;12.20;99.90
32698;DHT22;19087;51.062;3.754;2022-09-17T04:08:45;12.40;99.90
32698;DHT22;19087;51.062;3.754;2022-09-17T04:11:10;12.60;99.90
32698;DHT22;19087;51.062;3.754;2022-09-17T04:13:36;12.60;99.90
32698;DHT22;19087;51.062;3.754;2022-09-17T04:16:02;12.50;99.90
32698;DHT22;19087;51.062;3.754;2022-09-17T04:18:28;12.40;99.90
32698;DHT22;19087;51.062;3.754;2022-09-17T04:20:54;12.40;99.90
32698;DHT22;19087;51.062;3.754;2022-09-17T04:23:19;12.30;99.90
32698;DHT22;19087;51.062;3.754;2022-09-17T04:25:45;12.30;99.90
32698;DHT22;19087;51.062;3.754;2022-09-17T04:28:11;12.30;99.90
32698;DHT22;19087;51.062;3.754;2022-09-17T04:30:37;12.30;99.90
32698;DHT22;19087;51.062;3.754;2022-09-17T04:33:03;12.30;99.90
32698;DHT22;19087;51.062;3.754;2022-09-17T04:35:29;12.40;99.90
32698;DHT22;19087;51.062;3.754;2022-09-17T04:37:56;12.50;99.90
32698;DHT22;19087;51.062;3.754;2022-09-17T04:40:23;12.60;99.90
32698;DHT22;19087;51.062;3.754;2022-09-17T04:42:58;12.60;99.90
32698;DHT22;19087;51.062;3.754;2022-09-17T04:45:24;12.50;99.90
32698;DHT22;19087;51.062;3.754;2022-09-17T04:47:51;12.30;99.90
32698;DHT22;19087;51.062;3.754;2022-09-17T04:50:17;12.30;99.90
32698;DHT22;19087;51.062;3.754;2022-09-17T04:52:44;12.20;99.90
32698;DHT22;19087;51.062;3.754;2022-09-17T04:55:10;12.40;99.90
32698;DHT22;19087;51.062;3.754;2022-09-17T04:57:36;12.20;99.90
32698;DHT22;19087;51.062;3.754;2022-09-17T05:00:04;12.30;99.90
32698;DHT22;19087;51.062;3.754;2022-09-17T05:02:32;12.30;99.90
32698;DHT22;19087;51.062;3.754;2022-09-17T05:04:58;12.40;99.90
32698;DHT22;19087;51.062;3.754;2022-09-17T05:07:24;12.30;99.90
32698;DHT22;19087;51.062;3.754;2022-09-17T05:09:49;12.20;99.90
32698;DHT22;19087;51.062;3.754;2022-09-17T05:12:15;12.30;99.90
32698;DHT22;19087;51.062;3.754;2022-09-17T05:14:41;12.40;99.90
32698;DHT22;19087;51.062;3.754;2022-09-17T05:17:06;12.40;99.90
32698;DHT22;19087;51.062;3.754;2022-09-17T05:19:32;12.40;99.90
32698;DHT22;19087;51.062;3.754;2022-09-17T05:21:58;12.50;99.90
32698;DHT22;19087;51.062;3.754;2022-09-17T05:24:23;12.60;99.90
32698;DHT22;19087;51.062;3.754;2022-09-17T05:26:49;12.60;99.90
32698;DHT22;19087;51.062;3.754;2022-09-17T05:29:15;12.70;99.90
32698;DHT22;19087;51.062;3.754;2022-09-17T05:31:40;12.50;99.90
32698;DHT22;19087;51.062;3.754;2022-09-17T05:34:07;12.40;99.90
32698;DHT22;19087;51.062;3.754;2022-09-17T05:36:32;12.50;99.90
32698;DHT22;19087;51.062;3.754;2022-09-17T05:38:58;12.60;99.90
32698;DHT22;19087;51.062;3.754;2022-09-17T05:41:24;12.60;99.90
32698;DHT22;19087;51.062;3.754;2022-09-17T05:43:50;12.70;99.90
32698;DHT22;19087;51.062;3.754;2022-09-17T05:46:15;12.60;99.90
32698;DHT22;19087;51.062;3.754;2022-09-17T05:48:41;12.70;99.90
32698;DHT22;19087;51.062;3.754;2022-09-17T05:51:07;12.60;99.90
32698;DHT22;19087;51.062;3.754;2022-09-17T05:53:33;12.60;99.90
32698;DHT22;19087;51.062;3.754;2022-09-17T05:55:59;12.80;99.90
32698;DHT22;19087;51.062;3.754;2022-09-17T05:58:24;12.80;99.90
32698;DHT22;19087;51.062;3.754;2022-09-17T06:00:51;12.80;99.90
32698;DHT22;19087;51.062;3.754;2022-09-17T06:03:18;12.90;99.90
32698;DHT22;19087;51.062;3.754;2022-09-17T06:05:53;12.80;99.90
32698;DHT22;19087;51.062;3.754;2022-09-17T06:08:19;12.90;99.90
32698;DHT22;19087;51.062;3.754;2022-09-17T06:10:45;12.90;99.90
32698;DHT22;19087;51.062;3.754;2022-09-17T06:13:10;13.00;99.90
32698;DHT22;19087;51.062;3.754;2022-09-17T06:15:36;13.00;99.90
32698;DHT22;19087;51.062;3.754;2022-09-17T06:18:02;12.90;99.90
32698;DHT22;19087;51.062;3.754;2022-09-17T06:20:27;12.80;99.90
32698;DHT22;19087;51.062;3.754;2022-09-17T06:22:57;12.90;99.90
32698;DHT22;19087;51.062;3.754;2022-09-17T06:25:23;13.00;99.90
32698;DHT22;19087;51.062;3.754;2022-09-17T06:27:49;12.90;99.90
32698;DHT22;19087;51.062;3.754;2022-09-17T06:30:14;13.00;99.90
32698;DHT22;19087;51.062;3.754;2022-09-17T06:32:40;13.10;99.90
32698;DHT22;19087;51.062;3.754;2022-09-17T06:35:06;13.20;99.90
32698;DHT22;19087;51.062;3.754;2022-09-17T06:37:32;13.20;99.90
32698;DHT22;19087;51.062;3.754;2022-09-17T06:39:58;13.40;99.90
32698;DHT22;19087;51.062;3.754;2022-09-17T06:42:25;13.40;99.90
32698;DHT22;19087;51.062;3.754;2022-09-17T06:44:50;13.50;99.90
32698;DHT22;19087;51.062;3.754;2022-09-17T06:47:16;13.60;99.90
32698;DHT22;19087;51.062;3.754;2022-09-17T06:49:42;13.70;99.90
32698;DHT22;19087;51.062;3.754;2022-09-17T06:52:08;14.00;99.90
32698;DHT22;19087;51.062;3.754;2022-09-17T06:54:33;14.20;99.90
32698;DHT22;19087;51.062;3.754;2022-09-17T06:56:59;14.40;99.90
32698;DHT22;19087;51.062;3.754;2022-09-17T06:59:25;14.50;99.90
32698;DHT22;19087;51.062;3.754;2022-09-17T07:01:51;14.60;99.90
32698;DHT22;19087;51.062;3.754;2022-09-17T07:04:17;14.60;99.90
32698;DHT22;19087;51.062;3.754;2022-09-17T07:06:43;14.60;99.90
32698;DHT22;19087;51.062;3.754;2022-09-17T07:09:10;14.50;99.90
32698;DHT22;19087;51.062;3.754;2022-09-17T07:11:37;14.50;99.90
32698;DHT22;19087;51.062;3.754;2022-09-17T07:14:03;14.50;99.90
32698;DHT22;19087;51.062;3.754;2022-09-17T07:16:29;14.60;99.90
32698;DHT22;19087;51.062;3.754;2022-09-17T07:19:01;14.60;99.90
32698;DHT22;19087;51.062;3.754;2022-09-17T07:21:27;14.70;99.90
32698;DHT22;19087;51.062;3.754;2022-09-17T07:23:52;15.50;99.90
32698;DHT22;19087;51.062;3.754;2022-09-17T07:26:18;16.90;99.90
32698;DHT22;19087;51.062;3.754;2022-09-17T07:28:50;18.00;99.90
32698;DHT22;19087;51.062;3.754;2022-09-17T07:31:16;18.20;99.90
32698;DHT22;19087;51.062;3.754;2022-09-17T07:33:41;17.90;99.90
32698;DHT22;19087;51.062;3.754;2022-09-17T07:36:10;17.40;99.90
32698;DHT22;19087;51.062;3.754;2022-09-17T07:38:36;17.10;99.90
32698;DHT22;19087;51.062;3.754;2022-09-17T07:41:09;16.60;99.90
32698;DHT22;19087;51.062;3.754;2022-09-17T07:43:37;16.30;99.90
32698;DHT22;19087;51.062;3.754;2022-09-17T07:46:05;16.00;99.90
32698;DHT22;19087;51.062;3.754;2022-09-17T07:48:31;15.80;99.90
32698;DHT22;19087;51.062;3.754;2022-09-17T07:50:57;15.60;99.90
32698;DHT22;19087;51.062;3.754;2022-09-17T07:53:23;15.50;99.90
32698;DHT22;19087;51.062;3.754;2022-09-17T07:55:57;15.40;99.90
32698;DHT22;19087;51.062;3.754;2022-09-17T07:58:27;15.10;99.90
32698;DHT22;19087;51.062;3.754;2022-09-17T08:01:02;15.00;99.90
32698;DHT22;19087;51.062;3.754;2022-09-17T08:03:28;15.90;99.90
32698;DHT22;19087;51.062;3.754;2022-09-17T08:06:00;17.00;99.90
32698;DHT22;19087;51.062;3.754;2022-09-17T08:08:30;17.90;99.90
32698;DHT22;19087;51.062;3.754;2022-09-17T08:13:27;18.90;99.90
32698;DHT22;19087;51.062;3.754;2022-09-17T08:15:57;19.00;99.90
32698;DHT22;19087;51.062;3.754;2022-09-17T08:18:24;18.70;99.90
32698;DHT22;19087;51.062;3.754;2022-09-17T08:20:50;18.10;99.90
32698;DHT22;19087;51.062;3.754;2022-09-17T08:23:15;17.50;99.90
32698;DHT22;19087;51.062;3.754;2022-09-17T08:25:41;17.20;99.90
32698;DHT22;19087;51.062;3.754;2022-09-17T08:28:07;17.10;99.90
32698;DHT22;19087;51.062;3.754;2022-09-17T08:30:32;17.00;99.90
32698;DHT22;19087;51.062;3.754;2022-09-17T08:32:58;16.80;99.90
32698;DHT22;19087;51.062;3.754;2022-09-17T08:35:24;16.90;99.90
32698;DHT22;19087;51.062;3.754;2022-09-17T08:37:53;16.90;99.90
32698;DHT22;19087;51.062;3.754;2022-09-17T08:40:21;17.00;99.90
32698;DHT22;19087;51.062;3.754;2022-09-17T08:45:20;17.00;99.90
32698;DHT22;19087;51.062;3.754;2022-09-17T08:47:46;17.30;99.90
32698;DHT22;19087;51.062;3.754;2022-09-17T08:50:28;17.10;99.90
32698;DHT22;19087;51.062;3.754;2022-09-17T09:00:52;16.50;99.90
32698;DHT22;19087;51.062;3.754;2022-09-17T09:06:12;15.70;99.90
32698;DHT22;19087;51.062;3.754;2022-09-17T09:08:48;15.30;99.90
32698;DHT22;19087;51.062;3.754;2022-09-17T09:11:20;14.90;99.90
32698;DHT22;19087;51.062;3.754;2022-09-17T09:13:51;14.40;99.90
32698;DHT22;19087;51.062;3.754;2022-09-17T09:16:24;14.00;99.90
32698;DHT22;19087;51.062;3.754;2022-09-17T09:18:55;13.90;99.90
32698;DHT22;19087;51.062;3.754;2022-09-17T09:21:28;13.80;99.90
32698;DHT22;19087;51.062;3.754;2022-09-17T09:24:13;13.70;99.90
32698;DHT22;19087;51.062;3.754;2022-09-17T09:26:48;13.70;99.90
32698;DHT22;19087;51.062;3.754;2022-09-17T09:29:21;13.50;99.90
32698;DHT22;19087;51.062;3.754;2022-09-17T09:34:32;13.60;99.90
32698;DHT22;19087;51.062;3.754;2022-09-17T09:37:29;13.50;99.90
32698;DHT22;19087;51.062;3.754;2022-09-17T09:40:47;13.60;99.90
32698;DHT22;19087;51.062;3.754;2022-09-17T09:42:46;13.70;99.90
32698;DHT22;19087;51.062;3.754;2022-09-17T09:45:29;13.60;99.90
32698;DHT22;19087;51.062;3.754;2022-09-17T09:48:15;13.30;99.90
32698;DHT22;19087;51.062;3.754;2022-09-17T09:57:02;13.30;99.90
32698;DHT22;19087;51.062;3.754;2022-09-17T09:59:30;13.40;99.90
32698;DHT22;19087;51.062;3.754;2022-09-17T10:01:55;13.30;99.90
32698;DHT22;19087;51.062;3.754;2022-09-17T10:04:26;13.30;99.90
32698;DHT22;19087;51.062;3.754;2022-09-17T10:07:04;13.40;99.90
32698;DHT22;19087;51.062;3.754;2022-09-17T10:09:32;13.50;99.90
32698;DHT22;19087;51.062;3.754;2022-09-17T10:14:40;13.80;99.90
32698;DHT22;19087;51.062;3.754;2022-09-17T10:24:57;13.70;99.90
32698;DHT22;19087;51.062;3.754;2022-09-17T10:27:24;13.60;99.90
32698;DHT22;19087;51.062;3.754;2022-09-17T10:30:26;13.80;99.90
32698;DHT22;19087;51.062;3.754;2022-09-17T10:36:04;13.90;99.90
32698;DHT22;19087;51.062;3.754;2022-09-17T10:43:38;14.60;99.90
32698;DHT22;19087;51.062;3.754;2022-09-17T10:46:04;14.30;99.90
32698;DHT22;19087;51.062;3.754;2022-09-17T10:48:37;14.40;99.90
32698;DHT22;19087;51.062;3.754;2022-09-17T10:51:04;14.40;99.90
32698;DHT22;19087;51.062;3.754;2022-09-17T10:56:28;14.90;99.90
32698;DHT22;19087;51.062;3.754;2022-09-17T11:04:20;15.60;99.90
32698;DHT22;19087;51.062;3.754;2022-09-17T11:09:43;15.90;99.90
32698;DHT22;19087;51.062;3.754;2022-09-17T11:12:31;16.10;99.90
32698;DHT22;19087;51.062;3.754;2022-09-17T11:15:11;16.50;99.90
32698;DHT22;19087;51.062;3.754;2022-09-17T11:23:01;17.10;99.90
32698;DHT22;19087;51.062;3.754;2022-09-17T11:36:26;16.90;99.90
32698;DHT22;19087;51.062;3.754;2022-09-17T11:38:56;16.80;99.90
32698;DHT22;19087;51.062;3.754;2022-09-17T11:41:32;16.70;99.90
32698;DHT22;19087;51.062;3.754;2022-09-17T11:44:14;16.80;99.90
32698;DHT22;19087;51.062;3.754;2022-09-17T11:46:54;16.70;99.90
32698;DHT22;19087;51.062;3.754;2022-09-17T11:49:32;16.80;99.90
32698;DHT22;19087;51.062;3.754;2022-09-17T11:52:20;16.60;99.90
32698;DHT22;19087;51.062;3.754;2022-09-17T11:54:56;16.30;99.90
32698;DHT22;19087;51.062;3.754;2022-09-17T11:57:31;16.30;99.90
32698;DHT22;19087;51.062;3.754;2022-09-17T12:05:13;17.00;99.90
32698;DHT22;19087;51.062;3.754;2022-09-17T12:07:49;17.20;99.90
32698;DHT22;19087;51.062;3.754;2022-09-17T12:10:41;17.10;99.90
32698;DHT22;19087;51.062;3.754;2022-09-17T12:13:41;16.80;99.90
32698;DHT22;19087;51.062;3.754;2022-09-17T12:16:17;16.90;99.90
32698;DHT22;19087;51.062;3.754;2022-09-17T12:22:00;17.40;99.90
32698;DHT22;19087;51.062;3.754;2022-09-17T12:24:30;17.30;99.90
32698;DHT22;19087;51.062;3.754;2022-09-17T12:30:16;17.50;99.90
32698;DHT22;19087;51.062;3.754;2022-09-17T12:41:28;17.30;99.90
32698;DHT22;19087;51.062;3.754;2022-09-17T12:44:03;17.50;99.90
32698;DHT22;19087;51.062;3.754;2022-09-17T12:47:00;17.60;99.90
32698;DHT22;19087;51.062;3.754;2022-09-17T12:52:35;18.30;99.90
32698;DHT22;19087;51.062;3.754;2022-09-17T13:00:42;16.70;99.90
32698;DHT22;19087;51.062;3.754;2022-09-17T13:08:47;14.50;99.90
32698;DHT22;19087;51.062;3.754;2022-09-17T13:11:24;14.30;99.90
32698;DHT22;19087;51.062;3.754;2022-09-17T13:14:21;14.20;99.90
32698;DHT22;19087;51.062;3.754;2022-09-17T13:19:48;14.20;99.90
32698;DHT22;19087;51.062;3.754;2022-09-17T13:22:19;14.30;99.90
32698;DHT22;19087;51.062;3.754;2022-09-17T13:24:46;14.50;99.90
32698;DHT22;19087;51.062;3.754;2022-09-17T13:27:24;14.60;99.90
32698;DHT22;19087;51.062;3.754;2022-09-17T13:38:04;14.60;99.90
32698;DHT22;19087;51.062;3.754;2022-09-17T13:40:32;14.60;99.90
32698;DHT22;19087;51.062;3.754;2022-09-17T13:45:26;14.80;99.90
32698;DHT22;19087;51.062;3.754;2022-09-17T13:50:41;14.80;99.90
32698;DHT22;19087;51.062;3.754;2022-09-17T13:55:48;14.90;99.90
32698;DHT22;19087;51.062;3.754;2022-09-17T14:01:11;15.50;99.90
32698;DHT22;19087;51.062;3.754;2022-09-17T14:13:56;15.30;99.90
32698;DHT22;19087;51.062;3.754;2022-09-17T14:19:33;14.20;99.90
32698;DHT22;19087;51.062;3.754;2022-09-17T14:30:30;13.60;99.90
32698;DHT22;19087;51.062;3.754;2022-09-17T14:35:47;13.80;99.90
32698;DHT22;19087;51.062;3.754;2022-09-17T14:43:56;14.40;99.90
32698;DHT22;19087;51.062;3.754;2022-09-17T14:48:54;14.90;99.90
32698;DHT22;19087;51.062;3.754;2022-09-17T14:51:23;15.00;99.90
32698;DHT22;19087;51.062;3.754;2022-09-17T14:54:16;15.10;99.90
32698;DHT22;19087;51.062;3.754;2022-09-17T14:56:55;14.90;99.90
32698;DHT22;19087;51.062;3.754;2022-09-17T14:59:50;14.90;99.90
32698;DHT22;19087;51.062;3.754;2022-09-17T15:05:01;14.80;99.90
32698;DHT22;19087;51.062;3.754;2022-09-17T15:07:39;14.70;99.90
32698;DHT22;19087;51.062;3.754;2022-09-17T15:10:16;14.30;99.90
32698;DHT22;19087;51.062;3.754;2022-09-17T15:12:44;14.10;99.90
32698;DHT22;19087;51.062;3.754;2022-09-17T15:15:28;14.10;99.90
32698;DHT22;19087;51.062;3.754;2022-09-17T15:17:57;14.00;99.90
32698;DHT22;19087;51.062;3.754;2022-09-17T15:20:27;13.90;99.90
32698;DHT22;19087;51.062;3.754;2022-09-17T15:23:18;13.80;99.90
32698;DHT22;19087;51.062;3.754;2022-09-17T15:25:49;13.80;99.90
32698;DHT22;19087;51.062;3.754;2022-09-17T15:28:33;13.70;99.90
32698;DHT22;19087;51.062;3.754;2022-09-17T15:30:59;13.60;99.90
32698;DHT22;19087;51.062;3.754;2022-09-17T15:33:26;13.60;99.90
32698;DHT22;19087;51.062;3.754;2022-09-17T15:36:21;13.80;99.90
32698;DHT22;19087;51.062;3.754;2022-09-17T15:38:48;13.80;99.90
32698;DHT22;19087;51.062;3.754;2022-09-17T15:43:45;13.90;99.90
32698;DHT22;19087;51.062;3.754;2022-09-17T15:46:26;13.90;99.90
32698;DHT22;19087;51.062;3.754;2022-09-17T15:49:01;14.00;99.90
32698;DHT22;19087;51.062;3.754;2022-09-17T15:51:34;14.20;99.90
32698;DHT22;19087;51.062;3.754;2022-09-17T15:54:03;14.20;99.90
32698;DHT22;19087;51.062;3.754;2022-09-17T15:56:47;14.20;99.90
32698;DHT22;19087;51.062;3.754;2022-09-17T16:04:22;13.90;99.90
32698;DHT22;19087;51.062;3.754;2022-09-17T16:06:52;13.90;99.90
32698;DHT22;19087;51.062;3.754;2022-09-17T16:09:44;13.90;99.90
32698;DHT22;19087;51.062;3.754;2022-09-17T16:12:20;14.00;99.90
32698;DHT22;19087;51.062;3.754;2022-09-17T16:14:48;13.90;99.90
32698;DHT22;19087;51.062;3.754;2022-09-17T16:17:40;13.90;99.90
32698;DHT22;19087;51.062;3.754;2022-09-17T16:20:19;13.90;99.90
32698;DHT22;19087;51.062;3.754;2022-09-17T16:22:46;14.00;99.90
32698;DHT22;19087;51.062;3.754;2022-09-17T16:25:22;14.10;99.90
32698;DHT22;19087;51.062;3.754;2022-09-17T16:27:57;14.20;99.90
32698;DHT22;19087;51.062;3.754;2022-09-17T16:30:23;14.30;99.90
32698;DHT22;19087;51.062;3.754;2022-09-17T16:32:49;14.40;99.90
32698;DHT22;19087;51.062;3.754;2022-09-17T16:35:18;14.50;99.90
32698;DHT22;19087;51.062;3.754;2022-09-17T16:37:55;14.60;99.90
32698;DHT22;19087;51.062;3.754;2022-09-17T16:40:24;14.80;99.90
32698;DHT22;19087;51.062;3.754;2022-09-17T16:42:53;15.00;99.90
32698;DHT22;19087;51.062;3.754;2022-09-17T16:45:20;15.00;99.90
32698;DHT22;19087;51.062;3.754;2022-09-17T16:47:46;14.80;99.90
32698;DHT22;19087;51.062;3.754;2022-09-17T16:50:15;14.60;99.90
32698;DHT22;19087;51.062;3.754;2022-09-17T16:52:41;14.50;99.90
32698;DHT22;19087;51.062;3.754;2022-09-17T16:55:08;14.50;99.90
32698;DHT22;19087;51.062;3.754;2022-09-17T16:57:36;14.50;99.90
32698;DHT22;19087;51.062;3.754;2022-09-17T17:00:06;14.40;99.90
32698;DHT22;19087;51.062;3.754;2022-09-17T17:02:36;14.30;99.90
32698;DHT22;19087;51.062;3.754;2022-09-17T17:05:02;14.20;99.90
32698;DHT22;19087;51.062;3.754;2022-09-17T17:07:31;14.20;99.90
32698;DHT22;19087;51.062;3.754;2022-09-17T17:09:57;14.20;99.90
32698;DHT22;19087;51.062;3.754;2022-09-17T17:12:26;14.30;99.90
32698;DHT22;19087;51.062;3.754;2022-09-17T17:14:56;14.10;99.90
32698;DHT22;19087;51.062;3.754;2022-09-17T17:17:21;14.10;99.90
32698;DHT22;19087;51.062;3.754;2022-09-17T17:19:47;14.00;99.90
32698;DHT22;19087;51.062;3.754;2022-09-17T17:22:13;14.00;99.90
32698;DHT22;19087;51.062;3.754;2022-09-17T17:24:39;14.10;99.90
32698;DHT22;19087;51.062;3.754;2022-09-17T17:27:05;14.00;99.90
32698;DHT22;19087;51.062;3.754;2022-09-17T17:29:33;13.90;99.90
32698;DHT22;19087;51.062;3.754;2022-09-17T17:32:00;13.80;99.90
32698;DHT22;19087;51.062;3.754;2022-09-17T17:34:26;13.70;99.90
32698;DHT22;19087;51.062;3.754;2022-09-17T17:36:53;13.80;99.90
32698;DHT22;19087;51.062;3.754;2022-09-17T17:39:20;13.70;99.90
32698;DHT22;19087;51.062;3.754;2022-09-17T17:41:46;13.60;99.90
32698;DHT22;19087;51.062;3.754;2022-09-17T17:44:13;13.70;99.90
32698;DHT22;19087;51.062;3.754;2022-09-17T17:46:39;13.60;99.90
32698;DHT22;19087;51.062;3.754;2022-09-17T17:49:06;13.60;99.90
32698;DHT22;19087;51.062;3.754;2022-09-17T17:51:33;13.70;99.90
32698;DHT22;19087;51.062;3.754;2022-09-17T17:53:59;13.70;99.90
32698;DHT22;19087;51.062;3.754;2022-09-17T17:56:27;13.70;99.90
32698;DHT22;19087;51.062;3.754;2022-09-17T17:58:59;13.40;99.90
32698;DHT22;19087;51.062;3.754;2022-09-17T18:01:28;13.30;99.90
32698;DHT22;19087;51.062;3.754;2022-09-17T18:04:02;13.20;99.90
32698;DHT22;19087;51.062;3.754;2022-09-17T18:06:28;13.20;99.90
32698;DHT22;19087;51.062;3.754;2022-09-17T18:08:54;13.30;99.90
32698;DHT22;19087;51.062;3.754;2022-09-17T18:11:20;13.40;99.90
32698;DHT22;19087;51.062;3.754;2022-09-17T18:13:51;13.40;99.90
32698;DHT22;19087;51.062;3.754;2022-09-17T18:16:17;13.40;99.90
32698;DHT22;19087;51.062;3.754;2022-09-17T18:18:44;13.40;99.90
32698;DHT22;19087;51.062;3.754;2022-09-17T18:21:15;13.30;99.90
32698;DHT22;19087;51.062;3.754;2022-09-17T18:23:42;13.30;99.90
32698;DHT22;19087;51.062;3.754;2022-09-17T18:26:13;13.30;99.90
32698;DHT22;19087;51.062;3.754;2022-09-17T18:28:39;13.20;99.90
32698;DHT22;19087;51.062;3.754;2022-09-17T18:31:34;13.20;99.90
32698;DHT22;19087;51.062;3.754;2022-09-17T18:34:08;13.20;99.90
32698;DHT22;19087;51.062;3.754;2022-09-17T18:36:35;13.20;99.90
32698;DHT22;19087;51.062;3.754;2022-09-17T18:39:04;13.30;99.90
32698;DHT22;19087;51.062;3.754;2022-09-17T18:41:32;13.40;99.90
32698;DHT22;19087;51.062;3.754;2022-09-17T18:43:59;13.40;99.90
32698;DHT22;19087;51.062;3.754;2022-09-17T18:46:28;13.30;99.90
32698;DHT22;19087;51.062;3.754;2022-09-17T18:48:57;13.10;99.90
32698;DHT22;19087;51.062;3.754;2022-09-17T18:51:24;13.10;99.90
32698;DHT22;19087;51.062;3.754;2022-09-17T18:53:51;13.10;99.90
32698;DHT22;19087;51.062;3.754;2022-09-17T18:56:19;13.20;99.90
32698;DHT22;19087;51.062;3.754;2022-09-17T18:58:53;13.20;99.90
32698;DHT22;19087;51.062;3.754;2022-09-17T19:01:21;13.20;99.90
32698;DHT22;19087;51.062;3.754;2022-09-17T19:03:47;13.10;99.90
32698;DHT22;19087;51.062;3.754;2022-09-17T19:06:13;13.20;99.90
32698;DHT22;19087;51.062;3.754;2022-09-17T19:08:43;13.30;99.90
32698;DHT22;19087;51.062;3.754;2022-09-17T19:11:10;13.40;99.90
32698;DHT22;19087;51.062;3.754;2022-09-17T19:13:38;13.40;99.90
32698;DHT22;19087;51.062;3.754;2022-09-17T19:16:05;13.50;99.90